Time;durP1;ratioP1;P1;durP2;ratioP2;P2;SDS_P1;SDS_P2;PMS_P1;PMS_P2;Temp;Humidity;BMP_temperature;BMP_pressure;BME280_temperature;BME280_humidity;BME280_pressure;Samples;Min_cycle;Max_cycle;Signal;HPM_P1;HPM_P2
2022/10/22 00:01:00;;;;;;;1.17;0.60;;;;;;;13.07;100.00;97874.63;5013505;28;20234;-71
2022/10/22 00:03:27;;;;;;;0.57;0.50;;;;;;;12.98;100.00;97873.41;5013579;28;20237;-71
2022/10/22 00:05:53;;;;;;;1.10;0.70;;;;;;;13.00;100.00;97874.00;5013584;28;20206;-71
2022/10/22 00:08:19;;;;;;;3.57;0.70;;;;;;;12.97;100.00;97869.13;5013572;28;20228;-71
2022/10/22 00:10:46;;;;;;;2.10;0.70;;;;;;;13.04;100.00;97874.31;5013522;28;20700;-71
2022/10/22 00:13:13;;;;;;;2.80;0.70;;;;;;;13.05;100.00;97858.06;5013710;28;20284;-71
2022/10/22 00:15:39;;;;;;;1.03;0.70;;;;;;;13.08;100.00;97854.09;5012898;28;20218;-71
2022/10/22 00:18:06;;;;;;;1.77;0.60;;;;;;;13.10;100.00;97852.81;5013069;28;20207;-71
2022/10/22 00:20:32;;;;;;;3.20;0.80;;;;;;;13.03;100.00;97854.03;5013389;28;20233;-71
2022/10/22 00:22:59;;;;;;;3.20;0.70;;;;;;;13.06;100.00;97849.00;5013422;28;20309;-71
2022/10/22 00:25:25;;;;;;;3.80;0.50;;;;;;;13.03;100.00;97846.00;5013305;28;20213;-71
2022/10/22 00:27:51;;;;;;;1.77;0.50;;;;;;;13.08;100.00;97848.78;5013375;28;20210;-71
2022/10/22 00:30:18;;;;;;;0.73;0.50;;;;;;;13.08;100.00;97844.25;5012749;28;20242;-71
2022/10/22 00:32:45;;;;;;;3.17;0.70;;;;;;;13.08;100.00;97836.25;5012837;28;20574;-71
2022/10/22 00:35:11;;;;;;;1.40;0.57;;;;;;;13.13;100.00;97855.03;5013031;28;20213;-71
2022/10/22 00:37:37;;;;;;;0.60;0.50;;;;;;;13.10;100.00;97866.16;5013110;28;20216;-71
2022/10/22 00:40:05;;;;;;;2.30;0.70;;;;;;;13.10;100.00;97857.34;5013176;28;20234;-71
2022/10/22 00:42:32;;;;;;;2.87;0.70;;;;;;;13.13;100.00;97860.34;5013107;28;20234;-71
2022/10/22 00:45:10;;;;;;;1.43;0.53;;;;;;;13.08;100.00;97857.59;5012843;28;20209;-71
2022/10/22 00:47:53;;;;;;;2.03;0.50;;;;;;;13.16;100.00;97873.19;5016644;28;20188;-71
2022/10/22 00:50:34;;;;;;;1.10;0.53;;;;;;;13.10;100.00;97862.69;5016527;28;20229;-71
2022/10/22 00:53:01;;;;;;;5.43;0.70;;;;;;;13.06;100.00;97865.03;5016778;28;20190;-71
2022/10/22 00:55:29;;;;;;;0.50;0.50;;;;;;;13.13;100.00;97857.69;5015609;28;20213;-71
2022/10/22 00:57:57;;;;;;;1.50;0.50;;;;;;;13.06;100.00;97854.34;5016422;28;20665;-71
2022/10/22 01:00:24;;;;;;;0.60;0.60;;;;;;;13.09;100.00;97840.53;5016592;28;20233;-71
2022/10/22 01:02:52;;;;;;;0.80;0.50;;;;;;;13.07;100.00;97839.16;5016318;28;20226;-71
2022/10/22 01:05:19;;;;;;;0.53;0.53;;;;;;;13.08;100.00;97835.44;5016616;28;20214;-71
2022/10/22 01:07:49;;;;;;;1.13;0.60;;;;;;;13.07;100.00;97845.28;5016612;28;20213;-71
2022/10/22 01:10:43;;;;;;;0.80;0.50;;;;;;;13.06;100.00;97843.66;5016656;28;20704;-71
2022/10/22 01:13:34;;;;;;;1.03;0.40;;;;;;;13.07;100.00;97825.81;5016319;28;20561;-71
2022/10/22 01:16:14;;;;;;;1.93;0.60;;;;;;;13.03;100.00;97832.66;5014924;28;20302;-71
2022/10/22 01:19:10;;;;;;;1.30;0.60;;;;;;;13.10;100.00;97830.66;5016494;28;20209;-71
2022/10/22 01:21:43;;;;;;;1.33;0.60;;;;;;;13.09;100.00;97821.84;5014985;28;20233;-71
2022/10/22 01:24:39;;;;;;;0.80;0.80;;;;;;;13.06;100.00;97803.63;5016353;28;20195;-71
2022/10/22 01:27:39;;;;;;;2.93;0.50;;;;;;;13.07;100.00;97793.78;5017192;28;20222;-71
2022/10/22 01:30:08;;;;;;;1.73;0.53;;;;;;;13.11;100.00;97792.25;5016097;28;20230;-71
2022/10/22 01:32:43;;;;;;;2.90;0.50;;;;;;;13.08;100.00;97790.88;5016198;28;20573;-71
2022/10/22 01:35:14;;;;;;;1.50;0.50;;;;;;;13.10;100.00;97798.63;5015854;28;20200;-71
2022/10/22 01:37:46;;;;;;;5.10;0.90;;;;;;;13.09;100.00;97816.50;5016066;28;20220;-71
2022/10/22 01:40:15;;;;;;;1.00;0.70;;;;;;;13.04;100.00;97823.59;5016456;28;20317;-71
2022/10/22 01:42:42;;;;;;;0.60;0.50;;;;;;;13.04;100.00;97843.13;5015827;28;20700;-71
2022/10/22 01:45:12;;;;;;;1.57;0.60;;;;;;;13.02;100.00;97828.38;5015900;28;20210;-71
2022/10/22 01:47:56;;;;;;;1.17;0.60;;;;;;;13.10;100.00;97842.16;5015365;28;20209;-71
2022/10/22 01:50:22;;;;;;;2.67;0.50;;;;;;;13.08;100.00;97840.75;5015661;28;20232;-71
2022/10/22 01:52:57;;;;;;;1.37;0.53;;;;;;;13.11;100.00;97841.09;5015474;28;20569;-71
2022/10/22 01:55:35;;;;;;;1.33;0.50;;;;;;;13.10;100.00;97838.66;5015406;28;20637;-71
2022/10/22 01:58:13;;;;;;;2.00;0.77;;;;;;;13.13;100.00;97852.34;5013210;28;20664;-71
2022/10/22 02:00:48;;;;;;;0.50;0.50;;;;;;;13.13;100.00;97857.69;5014419;28;20740;-71
2022/10/22 02:03:21;;;;;;;2.00;0.60;;;;;;;13.10;100.00;97852.00;5015641;28;20213;-71
2022/10/22 02:05:52;;;;;;;1.50;0.67;;;;;;;13.11;100.00;97843.75;5015693;28;20203;-71
2022/10/22 02:08:23;;;;;;;1.63;0.60;;;;;;;13.09;100.00;97855.72;5015557;28;20191;-71
2022/10/22 02:10:51;;;;;;;3.07;0.77;;;;;;;13.07;100.00;97841.81;5014221;28;20318;-71
2022/10/22 02:13:24;;;;;;;2.53;0.73;;;;;;;13.07;100.00;97860.50;5014165;28;20225;-71
2022/10/22 02:15:52;;;;;;;1.73;0.60;;;;;;;13.07;100.00;97876.50;5014794;28;20240;-71
2022/10/22 02:18:24;;;;;;;1.10;0.70;;;;;;;13.04;100.00;97864.47;5015499;28;20588;-71
2022/10/22 02:20:50;;;;;;;0.70;0.50;;;;;;;13.05;100.00;97860.72;5015217;28;20231;-71
2022/10/22 02:23:17;;;;;;;1.43;0.50;;;;;;;13.00;100.00;97857.97;5014825;28;20225;-71
2022/10/22 02:25:49;;;;;;;2.33;0.70;;;;;;;13.01;100.00;97856.91;5015077;28;20210;-71
2022/10/22 02:28:39;;;;;;;1.43;0.50;;;;;;;13.01;100.00;97862.25;5015104;28;20260;-71
2022/10/22 02:31:13;;;;;;;1.60;0.50;;;;;;;13.02;100.00;97849.75;5015383;28;20577;-71
2022/10/22 02:33:47;;;;;;;3.30;0.60;;;;;;;13.00;100.00;97857.16;5013899;28;20194;-71
2022/10/22 02:36:16;;;;;;;1.33;0.40;;;;;;;12.98;100.00;97861.94;5014962;28;20195;-71
2022/10/22 02:38:43;;;;;;;1.60;0.60;;;;;;;13.00;100.00;97859.81;5014883;28;20217;-71
2022/10/22 02:41:10;;;;;;;1.00;0.63;;;;;;;12.92;100.00;97871.66;5014797;28;20222;-71
2022/10/22 02:43:44;;;;;;;1.73;0.60;;;;;;;12.92;100.00;97873.50;5014514;28;20227;-71
2022/10/22 02:46:11;;;;;;;1.13;0.63;;;;;;;12.92;100.00;97870.84;5014801;28;20213;-71
2022/10/22 02:48:37;;;;;;;1.90;0.63;;;;;;;12.88;100.00;97867.84;5014460;28;20217;-71
2022/10/22 02:51:04;;;;;;;1.93;0.60;;;;;;;12.87;100.00;97866.22;5014659;28;20227;-71
2022/10/22 02:53:30;;;;;;;2.73;0.70;;;;;;;12.87;100.00;97865.41;5014617;28;20542;-71
2022/10/22 02:55:57;;;;;;;0.50;0.50;;;;;;;12.90;100.00;97859.59;5014544;28;20206;-71
2022/10/22 02:58:23;;;;;;;2.00;0.60;;;;;;;12.90;100.00;97863.09;5014348;28;20691;-71
2022/10/22 03:00:49;;;;;;;3.60;0.80;;;;;;;12.98;100.00;97870.72;5014438;28;20589;-71
2022/10/22 03:03:16;;;;;;;1.17;0.60;;;;;;;12.94;100.00;97861.53;5014371;28;20226;-71
2022/10/22 03:05:42;;;;;;;1.10;0.60;;;;;;;12.98;100.00;97851.25;5014402;28;20221;-71
2022/10/22 03:08:08;;;;;;;1.40;0.67;;;;;;;12.96;100.00;97848.78;5014391;28;20222;-71
2022/10/22 03:10:35;;;;;;;1.43;0.80;;;;;;;12.88;100.00;97832.38;5014138;28;20234;-71
2022/10/22 03:13:01;;;;;;;1.13;0.77;;;;;;;12.92;100.00;97834.31;5013934;28;20673;-71
2022/10/22 03:15:28;;;;;;;1.63;0.70;;;;;;;12.89;100.00;97834.78;5014011;28;20214;-71
2022/10/22 03:17:54;;;;;;;1.33;0.80;;;;;;;12.94;100.00;97853.53;5014098;28;20669;-71
2022/10/22 03:20:21;;;;;;;1.10;0.60;;;;;;;12.95;100.00;97841.84;5014344;28;20237;-71
2022/10/22 03:22:47;;;;;;;0.87;0.70;;;;;;;12.97;100.00;97842.44;5014051;28;20229;-71
2022/10/22 03:25:19;;;;;;;2.10;0.77;;;;;;;12.98;100.00;97836.03;5012792;28;20214;-71
2022/10/22 03:27:46;;;;;;;1.43;0.90;;;;;;;13.01;100.00;97838.25;5014044;28;20191;-71
2022/10/22 03:30:13;;;;;;;2.27;0.70;;;;;;;13.03;100.00;97830.00;5013751;28;20746;-71
2022/10/22 03:32:39;;;;;;;0.50;0.50;;;;;;;13.02;100.00;97837.19;5013614;28;20210;-71
2022/10/22 03:35:06;;;;;;;2.50;0.80;;;;;;;13.13;100.00;97839.00;5014443;28;20217;-71
2022/10/22 03:37:34;;;;;;;0.83;0.50;;;;;;;13.05;100.00;97830.56;5013711;28;20210;-71
2022/10/22 03:40:01;;;;;;;2.27;0.53;;;;;;;13.11;100.00;97834.97;5013758;28;20226;-71
2022/10/22 03:42:28;;;;;;;0.50;0.50;;;;;;;13.15;100.00;97833.44;5013450;28;20219;-71
2022/10/22 03:44:54;;;;;;;1.53;0.80;;;;;;;13.11;100.00;97826.94;5013714;28;20206;-71
2022/10/22 03:47:23;;;;;;;1.37;0.60;;;;;;;13.13;100.00;97822.16;5013774;28;20206;-71
2022/10/22 03:49:49;;;;;;;1.27;0.60;;;;;;;13.10;100.00;97830.66;5013381;28;20213;-71
2022/10/22 03:52:16;;;;;;;0.77;0.60;;;;;;;13.04;100.00;97835.09;5013439;28;20217;-71
2022/10/22 03:54:43;;;;;;;1.60;0.60;;;;;;;12.98;100.00;97843.25;5013688;28;20244;-71
2022/10/22 03:57:10;;;;;;;1.37;0.70;;;;;;;13.01;100.00;97856.09;5013416;28;20214;-71
2022/10/22 03:59:45;;;;;;;2.10;0.67;;;;;;;13.00;100.00;97849.97;5013630;28;20215;-72
2022/10/22 04:02:12;;;;;;;2.50;0.60;;;;;;;12.99;100.00;97844.88;5013650;28;20194;-71
2022/10/22 04:04:39;;;;;;;0.67;0.67;;;;;;;12.97;100.00;97831.75;5013700;28;20210;-71
2022/10/22 04:07:06;;;;;;;2.63;0.47;;;;;;;13.00;100.00;97838.47;5013550;28;20209;-71
2022/10/22 04:09:34;;;;;;;2.07;0.70;;;;;;;13.02;100.00;97831.06;5013799;28;20661;-71
2022/10/22 04:12:01;;;;;;;2.33;0.80;;;;;;;12.98;100.00;97838.72;5013518;28;20210;-71
2022/10/22 04:14:27;;;;;;;0.60;0.60;;;;;;;12.97;100.00;97854.97;5013341;28;20210;-71
2022/10/22 04:16:54;;;;;;;1.80;0.87;;;;;;;12.96;100.00;97883.47;5013320;28;20221;-71
2022/10/22 04:19:20;;;;;;;1.43;0.50;;;;;;;12.94;100.00;97874.88;5013194;28;20211;-71
2022/10/22 04:21:47;;;;;;;2.30;0.53;;;;;;;12.98;100.00;97881.41;5016513;28;20233;-71
2022/10/22 04:24:13;;;;;;;7.93;0.80;;;;;;;12.90;100.00;97868.44;5017899;28;20237;-71
2022/10/22 04:26:39;;;;;;;0.50;0.50;;;;;;;12.99;100.00;97875.03;5017381;28;20213;-71
2022/10/22 04:29:07;;;;;;;1.33;0.60;;;;;;;12.90;100.00;97870.28;5017246;28;20272;-71
2022/10/22 04:31:33;;;;;;;1.47;0.50;;;;;;;12.85;100.00;97862.19;5017166;28;20233;-71
2022/10/22 04:34:01;;;;;;;1.00;0.57;;;;;;;12.85;100.00;97862.19;5017183;28;20202;-71
2022/10/22 04:36:28;;;;;;;1.37;0.50;;;;;;;12.95;100.00;97857.84;5017611;28;20210;-71
2022/10/22 04:38:59;;;;;;;3.20;0.60;;;;;;;13.00;100.00;97857.97;5017007;28;20210;-71
2022/10/22 04:41:32;;;;;;;0.53;0.40;;;;;;;12.96;100.00;97862.13;5016701;28;20233;-71
2022/10/22 04:43:59;;;;;;;1.33;0.53;;;;;;;12.96;100.00;97861.31;5016983;28;20220;-71
2022/10/22 04:46:30;;;;;;;0.90;0.50;;;;;;;12.93;100.00;97869.81;5016895;28;20202;-71
2022/10/22 04:48:56;;;;;;;4.03;0.50;;;;;;;12.92;100.00;97868.16;5017895;28;20536;-71
2022/10/22 04:51:24;;;;;;;0.97;0.60;;;;;;;12.89;100.00;97866.78;5017361;28;20223;-71
2022/10/22 04:53:51;;;;;;;2.67;0.70;;;;;;;12.84;100.00;97871.25;5016826;28;20210;-71
2022/10/22 04:56:22;;;;;;;2.10;0.60;;;;;;;12.86;100.00;97871.81;5016813;28;20207;-71
2022/10/22 04:58:50;;;;;;;2.10;0.80;;;;;;;12.82;100.00;97868.81;5016541;28;20661;-71
2022/10/22 05:01:38;;;;;;;2.33;0.63;;;;;;;12.89;100.00;97877.47;5016616;28;20229;-71
2022/10/22 05:04:06;;;;;;;1.73;0.60;;;;;;;13.15;100.00;97879.59;5016558;28;20215;-71
2022/10/22 05:06:35;;;;;;;0.50;0.50;;;;;;;13.13;100.00;97884.38;5016264;28;20209;-71
2022/10/22 05:09:05;;;;;;;1.90;0.50;;;;;;;13.14;100.00;97874.50;5016513;28;20209;-71
2022/10/22 05:11:34;;;;;;;0.93;0.60;;;;;;;13.10;100.00;97882.19;5016220;28;20226;-71
2022/10/22 05:14:02;;;;;;;0.50;0.50;;;;;;;13.09;100.00;97890.41;5016034;28;20570;-71
2022/10/22 05:16:30;;;;;;;2.03;0.63;;;;;;;13.05;100.00;97900.78;5016099;28;20218;-71
2022/10/22 05:18:58;;;;;;;3.90;0.67;;;;;;;13.13;100.00;97903.06;5016414;28;20202;-72
2022/10/22 05:21:26;;;;;;;0.43;0.43;;;;;;;13.21;100.00;97904.53;5015842;28;20231;-71
2022/10/22 05:23:53;;;;;;;3.13;0.60;;;;;;;13.17;100.00;97909.53;5016154;28;20240;-71
2022/10/22 05:26:21;;;;;;;1.53;0.60;;;;;;;13.11;100.00;97905.13;5015862;28;20661;-71
2022/10/22 05:28:49;;;;;;;1.33;0.50;;;;;;;13.17;100.00;97906.88;5016125;28;20217;-71
2022/10/22 05:31:17;;;;;;;3.30;0.50;;;;;;;13.14;100.00;97907.34;5015918;28;20222;-71
2022/10/22 05:33:44;;;;;;;3.63;0.60;;;;;;;13.16;100.00;97915.91;5014890;28;20234;-72
2022/10/22 05:36:13;;;;;;;0.57;0.50;;;;;;;13.21;100.00;97917.88;5015439;28;20206;-71
2022/10/22 05:38:40;;;;;;;1.73;0.70;;;;;;;13.06;100.00;97920.28;5015927;28;20210;-71
2022/10/22 05:41:13;;;;;;;2.73;0.70;;;;;;;12.98;100.00;97937.44;5015232;28;20708;-71
2022/10/22 05:43:39;;;;;;;1.77;0.50;;;;;;;12.99;100.00;97944.44;5015271;28;20700;-71
2022/10/22 05:46:09;;;;;;;1.77;0.60;;;;;;;13.05;100.00;97948.81;5016312;28;20553;-71
2022/10/22 05:48:35;;;;;;;1.50;0.60;;;;;;;13.06;100.00;97955.75;5015672;28;20211;-71
2022/10/22 05:51:04;;;;;;;1.03;0.50;;;;;;;13.17;100.00;97956.78;5015696;28;20234;-71
2022/10/22 05:53:36;;;;;;;2.43;0.60;;;;;;;13.24;100.00;97965.44;5015701;28;20226;-71
2022/10/22 05:56:04;;;;;;;2.90;0.57;;;;;;;13.27;100.00;97976.47;5015718;28;20191;-71
2022/10/22 05:58:30;;;;;;;5.10;0.80;;;;;;;13.29;100.00;97978.91;5015489;28;20217;-71
2022/10/22 06:01:06;;;;;;;1.67;0.50;;;;;;;13.32;100.00;97984.56;5015089;28;20260;-71
2022/10/22 06:03:32;;;;;;;0.67;0.53;;;;;;;13.30;100.00;97984.00;5015373;28;20221;-71
2022/10/22 06:06:07;;;;;;;1.60;0.60;;;;;;;13.36;100.00;97980.38;5015053;28;20205;-71
2022/10/22 06:08:34;;;;;;;2.33;0.73;;;;;;;13.41;100.00;97985.00;5015425;28;20190;-71
2022/10/22 06:11:00;;;;;;;1.70;0.60;;;;;;;13.35;100.00;97991.31;5015004;28;20689;-71
2022/10/22 06:13:27;;;;;;;1.27;0.50;;;;;;;13.29;100.00;97990.38;5015303;28;20202;-71
2022/10/22 06:15:53;;;;;;;2.23;0.60;;;;;;;13.21;100.00;97990.75;5015090;28;20229;-71
2022/10/22 06:18:20;;;;;;;2.33;0.50;;;;;;;13.24;100.00;97995.63;5015104;28;20214;-71
2022/10/22 06:20:46;;;;;;;2.93;0.63;;;;;;;13.24;100.00;98003.63;5014540;28;20234;-71
2022/10/22 06:23:13;;;;;;;1.50;0.70;;;;;;;13.28;100.00;98006.63;5014658;28;20573;-71
2022/10/22 06:25:40;;;;;;;4.33;0.80;;;;;;;13.27;100.00;97999.69;5014848;28;20747;-71
2022/10/22 06:28:06;;;;;;;3.27;0.80;;;;;;;13.19;100.00;98013.41;5014967;28;20213;-71
2022/10/22 06:30:32;;;;;;;0.77;0.53;;;;;;;13.15;100.00;98012.28;5014912;28;20230;-71
2022/10/22 06:32:59;;;;;;;3.40;0.67;;;;;;;13.17;100.00;98018.16;5014824;28;20209;-71
2022/10/22 06:35:25;;;;;;;3.13;0.83;;;;;;;13.15;100.00;98026.41;5014791;28;20214;-71
2022/10/22 06:37:51;;;;;;;2.57;0.80;;;;;;;13.21;100.00;98041.47;5014767;28;20209;-71
2022/10/22 06:40:18;;;;;;;1.63;0.77;;;;;;;13.22;100.00;98040.44;5014980;28;20233;-71
2022/10/22 06:42:44;;;;;;;1.23;0.80;;;;;;;13.23;100.00;98044.72;5014573;28;20214;-71
2022/10/22 06:45:10;;;;;;;3.53;0.70;;;;;;;13.21;100.00;98043.34;5014821;28;20217;-71
2022/10/22 06:47:37;;;;;;;1.30;0.87;;;;;;;13.21;100.00;98040.69;5014442;28;20229;-71
2022/10/22 06:50:03;;;;;;;0.90;0.90;;;;;;;13.21;100.00;98036.13;5014633;28;20227;-71
2022/10/22 06:52:30;;;;;;;1.10;0.90;;;;;;;13.21;100.00;98049.47;5014612;28;20206;-71
2022/10/22 06:54:56;;;;;;;1.97;0.80;;;;;;;13.28;100.00;98046.69;5014524;28;20209;-72
2022/10/22 06:57:22;;;;;;;1.20;0.90;;;;;;;13.30;100.00;98060.63;5014536;28;20207;-71
2022/10/22 06:59:49;;;;;;;3.67;1.00;;;;;;;13.39;100.00;98068.00;5014248;28;20209;-71
2022/10/22 07:02:15;;;;;;;1.20;0.70;;;;;;;13.42;100.00;98064.88;5014362;28;20226;-71
2022/10/22 07:04:41;;;;;;;1.27;0.90;;;;;;;13.48;100.00;98079.94;5014454;28;20233;-71
2022/10/22 07:07:08;;;;;;;3.33;0.93;;;;;;;13.53;100.00;98072.06;5014037;28;20568;-71
2022/10/22 07:09:34;;;;;;;2.60;1.00;;;;;;;13.52;100.00;98086.44;5014296;28;20229;-71
2022/10/22 07:12:00;;;;;;;2.47;0.90;;;;;;;13.55;100.00;98088.66;5014267;28;20203;-71
2022/10/22 07:14:27;;;;;;;0.67;0.60;;;;;;;13.65;100.00;98093.41;5014155;28;20225;-71
2022/10/22 07:16:53;;;;;;;1.70;0.70;;;;;;;13.69;100.00;98097.19;5013923;28;20214;-71
2022/10/22 07:19:19;;;;;;;2.67;0.83;;;;;;;13.70;100.00;98101.50;5014851;28;20213;-71
2022/10/22 07:21:46;;;;;;;1.50;0.73;;;;;;;13.73;100.00;98107.19;5013719;28;20230;-72
2022/10/22 07:24:12;;;;;;;1.37;0.83;;;;;;;13.76;100.00;98104.03;5013557;28;20235;-72
2022/10/22 07:26:39;;;;;;;2.33;0.90;;;;;;;13.86;100.00;98101.56;5013818;28;20210;-71
2022/10/22 07:29:05;;;;;;;0.70;0.60;;;;;;;13.93;100.00;98096.88;5013998;28;20215;-71
2022/10/22 07:31:32;;;;;;;2.10;0.60;;;;;;;13.95;100.00;98101.97;5013734;28;20222;-71
2022/10/22 07:33:58;;;;;;;1.73;0.77;;;;;;;13.95;100.00;98107.31;5013777;28;20202;-71
2022/10/22 07:36:24;;;;;;;3.30;0.80;;;;;;;13.96;100.00;98108.94;5014044;28;20202;-71
2022/10/22 07:38:55;;;;;;;1.30;0.90;;;;;;;13.98;100.00;98113.00;5014341;28;20213;-71
2022/10/22 07:41:22;;;;;;;2.53;0.80;;;;;;;14.04;100.00;98116.59;5013626;28;20231;-72
2022/10/22 07:43:49;;;;;;;1.97;0.97;;;;;;;14.03;100.00;98120.31;5013646;28;20245;-71
2022/10/22 07:46:15;;;;;;;0.73;0.63;;;;;;;14.09;100.00;98120.19;5013696;28;20202;-71
2022/10/22 07:48:42;;;;;;;0.90;0.80;;;;;;;14.04;100.00;98125.44;5013203;28;20542;-71
2022/10/22 07:51:08;;;;;;;1.40;0.80;;;;;;;14.03;100.00;98126.50;5012948;28;20728;-71
2022/10/22 07:53:35;;;;;;;1.60;0.90;;;;;;;14.05;100.00;98124.38;5013172;28;20298;-71
2022/10/22 07:56:02;;;;;;;4.43;1.00;;;;;;;14.09;100.00;98122.84;5012361;28;20669;-71
2022/10/22 07:58:28;;;;;;;1.70;0.90;;;;;;;14.10;100.00;98121.78;5012999;28;20665;-71
2022/10/22 08:00:57;;;;;;;1.23;0.70;;;;;;;14.14;100.00;98128.28;5013238;28;20231;-72
2022/10/22 08:03:23;;;;;;;1.57;0.77;;;;;;;14.17;100.00;98130.50;5013474;28;20562;-71
2022/10/22 08:05:51;;;;;;;3.07;0.90;;;;;;;14.23;100.00;98129.56;5013349;28;20214;-71
2022/10/22 08:08:18;;;;;;;3.10;0.90;;;;;;;14.30;100.00;98135.53;5028065;28;20206;-71
2022/10/22 08:10:47;;;;;;;3.27;0.83;;;;;;;14.24;100.00;98131.16;5013303;28;20237;-71
2022/10/22 08:13:14;;;;;;;3.27;0.90;;;;;;;14.28;100.00;98135.00;5013182;28;20207;-71
2022/10/22 08:15:42;;;;;;;0.80;0.80;;;;;;;14.36;100.00;98139.13;5012499;28;20554;-72
2022/10/22 08:18:09;;;;;;;0.70;0.67;;;;;;;14.38;100.00;98145.88;5013208;28;20202;-72
2022/10/22 08:20:35;;;;;;;1.70;0.80;;;;;;;14.31;100.00;98139.03;5013576;28;20230;-71
2022/10/22 08:23:02;;;;;;;1.00;0.70;;;;;;;14.35;100.00;98140.19;5013273;28;20213;-71
2022/10/22 08:25:28;;;;;;;0.80;0.80;;;;;;;14.42;100.00;98140.88;5013995;28;20229;-71
2022/10/22 08:27:54;;;;;;;0.97;0.70;;;;;;;14.45;100.00;98146.53;5013344;28;20658;-71
2022/10/22 08:30:21;;;;;;;1.20;0.70;;;;;;;14.39;100.00;98149.34;5013140;28;20234;-71
2022/10/22 08:32:47;;;;;;;0.83;0.70;;;;;;;14.40;100.00;98148.31;5013021;28;20669;-71
2022/10/22 08:35:14;;;;;;;0.90;0.87;;;;;;;14.48;100.00;98146.03;5013431;28;20207;-71
2022/10/22 08:37:40;;;;;;;1.37;0.70;;;;;;;14.70;100.00;98149.63;5013185;28;20206;-71
2022/10/22 08:40:07;;;;;;;1.57;0.80;;;;;;;14.82;100.00;98153.03;5012861;28;20230;-71
2022/10/22 08:42:55;;;;;;;1.97;0.70;;;;;;;14.84;100.00;98150.94;5013105;28;20203;-71
2022/10/22 08:45:32;;;;;;;1.77;0.73;;;;;;;14.77;100.00;98147.63;5012731;28;20219;-71
2022/10/22 08:48:20;;;;;;;1.07;0.80;;;;;;;14.74;100.00;98150.75;5013029;28;20253;-71
2022/10/22 08:50:49;;;;;;;1.63;0.80;;;;;;;14.77;100.00;98142.25;5012554;28;20713;-71
2022/10/22 08:53:26;;;;;;;2.33;0.77;;;;;;;14.80;100.00;98139.13;5012943;28;20217;-71
2022/10/22 08:55:53;;;;;;;1.63;0.60;;;;;;;14.84;100.00;98137.53;5013136;28;20198;-72
2022/10/22 08:58:47;;;;;;;1.97;0.70;;;;;;;14.99;100.00;98143.16;5012995;28;20216;-72
2022/10/22 09:01:17;;;;;;;0.80;0.70;;;;;;;15.09;100.00;98145.16;5012966;28;20234;-71
2022/10/22 09:03:56;;;;;;;1.10;0.70;;;;;;;15.22;100.00;98148.31;5012791;28;20674;-72
2022/10/22 09:06:25;;;;;;;2.37;0.80;;;;;;;15.30;100.00;98150.59;5013084;28;20230;-72
2022/10/22 09:08:53;;;;;;;0.83;0.73;;;;;;;15.46;100.00;98149.75;5014993;28;20665;-71
2022/10/22 09:11:23;;;;;;;2.53;0.73;;;;;;;15.59;100.00;98159.28;5016448;28;20230;-72
2022/10/22 09:13:52;;;;;;;2.00;1.90;;;;;;;15.76;100.00;98152.03;5016710;28;20199;-71
2022/10/22 09:16:24;;;;;;;3.37;1.30;;;;;;;15.81;100.00;98147.53;5015665;28;20219;-72
2022/10/22 09:18:58;;;;;;;0.70;0.70;;;;;;;15.91;100.00;98150.34;5016313;28;20202;-72
2022/10/22 09:21:48;;;;;;;1.17;1.10;;;;;;;16.17;100.00;98160.31;5015010;28;20226;-72
2022/10/22 09:24:38;;;;;;;2.70;0.90;;;;;;;16.18;100.00;98161.09;5016372;28;20219;-72
2022/10/22 09:27:16;;;;;;;1.57;0.77;;;;;;;16.28;100.00;98159.34;5015763;28;20211;-72
2022/10/22 09:29:44;;;;;;;1.63;0.90;;;;;;;16.39;100.00;98157.56;5015633;28;20190;-72
2022/10/22 09:32:10;;;;;;;1.43;1.03;;;;;;;16.39;100.00;98158.41;5015868;28;20210;-72
2022/10/22 09:34:37;;;;;;;1.20;1.10;;;;;;;16.57;100.00;98157.25;5015406;28;20207;-71
2022/10/22 09:37:07;;;;;;;2.73;1.10;;;;;;;16.61;100.00;98159.16;5015745;28;20206;-71
2022/10/22 09:39:44;;;;;;;1.60;1.50;;;;;;;16.67;100.00;98160.84;5015682;28;20251;-72
2022/10/22 09:42:15;;;;;;;1.63;1.40;;;;;;;16.77;100.00;98168.97;5015450;28;20197;-72
2022/10/22 09:44:42;;;;;;;1.03;1.00;;;;;;;17.02;100.00;98171.88;5015689;28;20211;-72
2022/10/22 09:47:33;;;;;;;1.70;0.80;;;;;;;16.99;97.80;98172.38;5015603;28;20514;-72
2022/10/22 09:50:25;;;;;;;0.70;0.70;;;;;;;17.19;100.00;98172.53;5015191;28;20223;-71
2022/10/22 09:53:04;;;;;;;2.60;0.70;;;;;;;17.28;98.33;98181.72;5015850;28;20550;-72
2022/10/22 09:55:30;;;;;;;3.60;0.80;;;;;;;17.34;99.30;98179.91;5015329;28;20205;-72
2022/10/22 09:57:59;;;;;;;2.47;0.70;;;;;;;17.43;100.00;98189.13;5015087;28;20207;-72
2022/10/22 10:00:27;;;;;;;1.50;0.53;;;;;;;17.54;98.02;98183.56;5015262;28;20226;-72
2022/10/22 10:02:59;;;;;;;0.70;0.70;;;;;;;17.55;90.77;98193.22;5015246;28;20218;-72
2022/10/22 10:05:29;;;;;;;0.90;0.70;;;;;;;17.55;93.43;98200.50;5014993;28;20241;-72
2022/10/22 10:07:56;;;;;;;1.57;0.70;;;;;;;17.50;90.07;98197.78;5015293;28;20230;-72
2022/10/22 10:10:51;;;;;;;3.17;0.60;;;;;;;17.53;91.12;98195.38;5015142;28;20222;-72
2022/10/22 10:13:37;;;;;;;1.93;0.70;;;;;;;17.67;90.52;98209.16;5015243;28;20197;-72
2022/10/22 10:16:28;;;;;;;2.20;0.67;;;;;;;17.76;90.72;98207.59;5014960;28;20660;-72
2022/10/22 10:19:14;;;;;;;2.03;0.73;;;;;;;17.87;100.00;98206.59;5014493;28;20193;-72
2022/10/22 10:21:56;;;;;;;1.67;0.70;;;;;;;17.99;90.84;98208.00;5015126;28;20241;-72
2022/10/22 10:24:34;;;;;;;2.23;0.60;;;;;;;18.14;85.73;98207.25;5014932;28;20317;-72
2022/10/22 10:27:28;;;;;;;1.27;0.43;;;;;;;18.03;82.21;98206.41;5014847;28;20671;-72
2022/10/22 10:30:20;;;;;;;1.03;0.70;;;;;;;18.09;83.85;98218.00;5014696;28;20190;-72
2022/10/22 10:32:58;;;;;;;3.27;0.70;;;;;;;18.07;82.68;98218.25;5014937;28;20198;-72
2022/10/22 10:35:55;;;;;;;1.40;0.87;;;;;;;17.96;79.16;98216.56;5014797;28;20183;-72
2022/10/22 10:38:57;;;;;;;3.43;0.90;;;;;;;18.08;79.07;98227.13;5014704;28;20195;-72
2022/10/22 10:41:53;;;;;;;0.73;0.70;;;;;;;18.15;78.26;98223.13;5014536;28;20229;-72
2022/10/22 10:44:50;;;;;;;1.33;0.67;;;;;;;18.15;84.64;98230.41;5014746;28;20222;-72
2022/10/22 10:47:54;;;;;;;2.77;0.70;;;;;;;18.14;79.86;98231.47;4996559;28;20226;-72
2022/10/22 10:50:58;;;;;;;1.33;0.80;;;;;;;18.20;78.46;98231.22;5014518;28;20222;-72
2022/10/22 10:53:29;;;;;;;0.50;0.50;;;;;;;18.15;83.41;98235.78;4980810;28;20681;-72
2022/10/22 10:56:10;;;;;;;2.60;0.60;;;;;;;18.23;80.64;98240.66;5012715;28;20187;-72
2022/10/22 10:59:01;;;;;;;1.67;0.70;;;;;;;18.32;83.29;98231.81;5013034;28;20598;-72
2022/10/22 11:01:46;;;;;;;1.63;1.00;;;;;;;18.37;87.19;98226.47;5014075;28;20592;-72
2022/10/22 11:04:41;;;;;;;1.87;0.87;;;;;;;18.30;85.09;98233.97;5014845;28;20230;-72
2022/10/22 11:07:15;;;;;;;0.90;0.83;;;;;;;18.25;84.49;98231.25;5029400;28;20270;-72
2022/10/22 11:09:52;;;;;;;1.10;0.80;;;;;;;18.24;80.22;98220.75;5014219;28;20191;-72
2022/10/22 11:12:25;;;;;;;1.33;0.83;;;;;;;18.20;78.58;98223.16;5013833;28;20652;-72
2022/10/22 11:14:58;;;;;;;2.63;0.83;;;;;;;18.40;75.90;98217.06;5012703;28;20228;-72
2022/10/22 11:17:30;;;;;;;1.70;0.70;;;;;;;18.30;77.16;98225.06;5014591;28;20191;-72
2022/10/22 11:20:15;;;;;;;0.93;0.83;;;;;;;18.31;77.36;98226.69;5013682;28;20728;-72
2022/10/22 11:22:47;;;;;;;2.37;0.70;;;;;;;18.40;77.33;98223.25;5012820;28;20191;-72
2022/10/22 11:25:17;;;;;;;1.43;0.80;;;;;;;18.38;77.72;98214.66;5013707;28;20215;-72
2022/10/22 11:27:56;;;;;;;1.73;0.90;;;;;;;18.55;78.28;98219.81;5014084;28;20207;-72
2022/10/22 11:30:25;;;;;;;2.97;0.80;;;;;;;18.65;79.30;98217.13;5011836;28;20237;-72
2022/10/22 11:33:01;;;;;;;1.30;0.80;;;;;;;18.51;82.92;98216.81;5013309;28;20203;-72
2022/10/22 11:35:32;;;;;;;1.00;0.80;;;;;;;18.59;77.53;98220.91;5013726;28;20198;-72
2022/10/22 11:38:00;;;;;;;2.77;1.20;;;;;;;18.57;80.73;98217.63;5013816;28;20191;-72
2022/10/22 11:40:35;;;;;;;1.77;0.80;;;;;;;18.60;75.92;98207.13;5013334;28;20579;-72
2022/10/22 11:43:25;;;;;;;3.70;0.90;;;;;;;18.58;72.12;98212.00;5014122;28;20186;-72
2022/10/22 11:45:58;;;;;;;2.10;0.90;;;;;;;18.31;72.76;98216.72;5013405;28;20215;-72